Surface observations / Quebec / CYHU (71371)

Quebec | Canada | USA | France | UK | Europe | Elsewhere

Display: Info & Location for CYHU (71371) | Help decoding METAR

CYHU MONTREAL/ST HUBERT A QB CN
Raw surface observations for station CYHU
CYHU 042200Z AUTO 18009KT 9SM FEW070 BKN140 OVC180 24/15 A2989 RMK SLP123 DENSITY ALT 1200FT=
CYHU 042100Z AUTO 19007KT 9SM FEW060 OVC180 24/14 A2989 RMK SLP122 DENSITY ALT 1200FT=
CYHU 042000Z AUTO 26008KT 9SM SCT065 BKN092 OVC190 24/12 A2990 RMK SLP124 DENSITY ALT 1200FT=
CYHU 041900Z AUTO 18006KT 160V230 9SM SCT065 BKN089 25/13 A2990 RMK SLP126 DENSITY ALT 1200FT=
CYHU 041800Z AUTO 17006KT 150V250 9SM CLR 24/13 A2991 RMK SLP128 DENSITY ALT 1100FT=
CYHU 041700Z AUTO VRB03KT 7SM CLR 23/14 A2992 RMK SLP131 DENSITY ALT 1000FT=
CYHU 041600Z AUTO VRB02KT 9SM CLR 21/15 A2993 RMK SLP136 DENSITY ALT 800FT=
CYHU 041500Z AUTO 17004KT 120V210 9SM FEW180 20/15 A2994 RMK SLP139 DENSITY ALT 600FT=
CYHU 041400Z AUTO 17005KT 130V190 9SM SCT180 SCT200 18/15 A2994 RMK SLP140 DENSITY ALT 400FT=
CYHU 041300Z AUTO 17004KT 150V230 9SM BKN220 18/14 A2995 RMK SLP143 DENSITY ALT 300FT=
CYHU 041200Z AUTO 16004KT 9SM FEW240 17/14 A2995 RMK SLP142 DENSITY ALT 200FT=
CYHU 041100Z AUTO 13002KT 9SM SCT200 OVC220 15/12 A2994 RMK SLP140=
CYHU 041000Z AUTO 13003KT 9SM BKN230 BKN250 14/11 A2994 RMK SLP140=
CYHU 040900Z AUTO 16004KT 9SM SCT240 13/11 A2994 RMK SLP140=
CYHU 040800Z AUTO 15004KT 9SM BKN210 12/10 A2994 RMK SLP139=
CYHU 040700Z AUTO 12005KT 9SM FEW230 13/11 A2994 RMK SLP139=
CYHU 040600Z AUTO 15002KT 9SM CLR 15/11 A2993 RMK SLP135 DENSITY ALT 100FT=
CYHU 040500Z AUTO 17005KT 9SM CLR 15/11 A2994 RMK SLP139 DENSITY ALT 100FT=
CYHU 040400Z AUTO 24004KT 9SM CLR 17/11 A2994 RMK SLP138 DENSITY ALT 300FT=
CYHU 040300Z AUTO 23004KT 9SM CLR 17/11 A2993 RMK SLP137 DENSITY ALT 300FT=
CYHU 040200Z AUTO 23006KT 9SM CLR 18/11 A2994 RMK SLP138 DENSITY ALT 400FT=
CYHU 040100Z AUTO 24007KT 9SM CLR 19/11 A2993 RMK SLP136 DENSITY ALT 500FT=
CYHU 040000Z AUTO 24009KT 9SM CLR 21/10 A2993 RMK SLP135 DENSITY ALT 800FT=
CYHU 032300Z AUTO 24010G16KT 9SM CLR 22/10 A2992 RMK SLP131 DENSITY ALT 900FT=
CYHU 032200Z AUTO 23016KT 9SM CLR 23/09 A2991 RMK SLP129 DENSITY ALT 1000FT=